logo
Search for airport 
image banner adimage banner adimage banner ad
image banner ad

LOKO - Goldeck Talstation

Located in District Spittal An Der Drau, Austria

ICAO - , IATA -

Data provided by Airmate  

General information

Coordinates: N46°47'34" E13°28'59"
Elevation is 1761 feet MSL.
 
View others Airports in Salzburg

Operational data

Special qualification required
Current time UTC:
Current local time:
Weather at : LOWK - Klagenfurt ( 67 km )
METAR: LOWK 191650Z AUTO 21007KT 180V240 9999 SCT080 12/M03 Q1008 NOSIG
TAF: TAF LOWK 191115Z 1912/2012 VRB03KT 9999 FEW050 TX13/1914Z TN03/2004Z TEMPO 1914/1917 22008KT
View NOTAMs / SUP AIP / TFR affecting this airport [VIEW]
Communications frequencies: [VIEW]

Runways:

Airport contact information

Address: District Spittal An Der Drau Austria

Satellite view of LOKO